createdAt,value
2019-04-06T00:02:02.051Z,87.23
2019-04-06T00:05:06.604Z,87.95
2019-04-06T00:08:09.921Z,88.32
2019-04-06T00:11:13.263Z,88.62
2019-04-06T00:14:16.597Z,88.34
2019-04-06T00:17:19.940Z,88.43
2019-04-06T00:20:23.213Z,88.34
2019-04-06T00:23:26.539Z,88.45
2019-04-06T00:26:29.959Z,88.49
2019-04-06T00:29:33.234Z,88.17
2019-04-06T00:32:38.206Z,88.52
2019-04-06T00:35:41.573Z,88.55
2019-04-06T00:38:44.887Z,88.08
2019-04-06T00:41:48.216Z,88.54
2019-04-06T00:44:51.521Z,88.70
2019-04-06T00:47:54.837Z,87.83
2019-04-06T00:50:58.216Z,88.38
2019-04-06T00:54:01.532Z,87.82
2019-04-06T00:57:04.850Z,86.99
2019-04-06T01:00:08.197Z,88.15
2019-04-06T01:03:11.504Z,88.39
2019-04-06T01:06:14.816Z,88.65
2019-04-06T01:09:18.285Z,89.20
2019-04-06T01:12:21.596Z,88.83
2019-04-06T01:15:24.917Z,88.73
2019-04-06T01:18:28.234Z,88.88
2019-04-06T01:21:31.531Z,89.01
2019-04-06T01:24:34.844Z,89.22
2019-04-06T01:27:38.182Z,89.28
2019-04-06T01:30:41.480Z,89.52
2019-04-06T01:33:44.824Z,89.64
2019-04-06T01:36:48.116Z,89.41
2019-04-06T01:39:51.462Z,88.87
2019-04-06T01:42:54.765Z,87.80
2019-04-06T01:45:58.071Z,87.49
2019-04-06T01:49:01.399Z,87.54
2019-04-06T01:52:04.716Z,88.17
2019-04-06T01:55:08.008Z,88.64
2019-04-06T01:58:11.429Z,89.46
2019-04-06T02:01:25.404Z,89.57
2019-04-06T02:04:28.801Z,89.43
2019-04-06T02:07:32.161Z,90.30
2019-04-06T02:10:35.454Z,90.19
2019-04-06T02:13:38.864Z,90.87
2019-04-06T02:16:42.197Z,90.70
2019-04-06T02:19:45.508Z,90.71
2019-04-06T02:22:48.807Z,90.69
2019-04-06T02:25:52.115Z,91.01
2019-04-06T02:28:55.463Z,90.81
2019-04-06T02:32:16.716Z,90.24
2019-04-06T02:35:37.804Z,90.17
2019-04-06T02:38:45.274Z,90.15
2019-04-06T02:41:50.167Z,88.96
2019-04-06T02:44:53.496Z,89.30
2019-04-06T02:47:56.881Z,89.06
2019-04-06T02:51:00.180Z,89.47
2019-04-06T02:54:03.557Z,89.58
2019-04-06T02:57:06.819Z,89.57
2019-04-06T03:00:10.626Z,89.04
2019-04-06T03:03:13.938Z,88.77
2019-04-06T03:06:17.281Z,88.60
2019-04-06T03:09:20.582Z,88.93
2019-04-06T03:12:23.913Z,89.51
2019-04-06T03:15:27.205Z,89.44
2019-04-06T03:18:30.545Z,89.45
2019-04-06T03:21:33.901Z,89.99
2019-04-06T03:24:37.260Z,90.20
2019-04-06T03:27:40.724Z,90.57
2019-04-06T03:30:44.494Z,90.64
2019-04-06T03:33:47.958Z,90.00
2019-04-06T03:36:51.290Z,89.99
2019-04-06T03:39:54.740Z,90.41
2019-04-06T03:42:58.057Z,90.97
2019-04-06T03:46:01.386Z,91.19
2019-04-06T03:49:04.734Z,91.03
2019-04-06T03:52:08.078Z,90.85
2019-04-06T03:55:11.480Z,90.71
2019-04-06T03:58:14.985Z,90.39
2019-04-06T04:01:18.339Z,89.66
2019-04-06T04:04:25.601Z,90.28
2019-04-06T04:07:28.958Z,89.92
2019-04-06T04:10:36.265Z,90.24
2019-04-06T04:13:39.762Z,90.33
2019-04-06T04:16:43.083Z,90.00
2019-04-06T04:19:46.462Z,89.56
2019-04-06T04:22:49.824Z,89.29
2019-04-06T04:25:53.162Z,89.67
2019-04-06T04:28:56.483Z,90.66
2019-04-06T04:31:59.809Z,90.04
2019-04-06T04:35:03.151Z,90.19
2019-04-06T04:38:06.479Z,89.57
2019-04-06T04:41:09.904Z,89.61
2019-04-06T04:44:13.165Z,90.12
2019-04-06T04:47:16.546Z,89.97
2019-04-06T04:50:20.271Z,90.52
2019-04-06T04:53:23.684Z,90.22
2019-04-06T04:56:27.014Z,91.48
2019-04-06T04:59:30.413Z,91.32
2019-04-06T05:02:33.794Z,92.57
2019-04-06T05:05:37.217Z,93.15
2019-04-06T05:08:40.534Z,93.45
2019-04-06T05:11:44.000Z,93.11
2019-04-06T05:15:04.841Z,92.53
2019-04-06T05:18:08.200Z,92.65
2019-04-06T05:21:11.754Z,92.33
2019-04-06T05:24:15.070Z,91.37
2019-04-06T05:27:18.438Z,90.54
2019-04-06T05:30:21.772Z,90.17
2019-04-06T05:33:25.094Z,89.59
2019-04-06T05:36:28.533Z,88.68
2019-04-06T05:39:31.827Z,88.85
2019-04-06T05:42:35.132Z,88.85
2019-04-06T05:45:38.433Z,88.27
2019-04-06T05:48:41.940Z,88.91
2019-04-06T05:51:45.252Z,91.15
2019-04-06T05:54:48.750Z,91.14
2019-04-06T05:58:02.915Z,89.70
2019-04-06T06:00:57.108Z,90.05
2019-04-06T06:04:00.525Z,90.33
2019-04-06T06:07:03.858Z,91.60
2019-04-06T06:10:07.632Z,91.45
2019-04-06T06:13:11.079Z,91.79
2019-04-06T06:16:14.487Z,91.90
2019-04-06T06:19:17.840Z,92.36
2019-04-06T06:22:21.316Z,91.60
2019-04-06T06:25:24.645Z,92.38
2019-04-06T06:28:28.026Z,92.31
2019-04-06T06:31:31.568Z,91.93
2019-04-06T06:34:34.962Z,91.98
2019-04-06T06:37:38.361Z,91.12
2019-04-06T06:40:41.697Z,90.07
2019-04-06T06:43:45.524Z,89.12
2019-04-06T06:46:48.953Z,88.97
2019-04-06T06:49:52.334Z,88.83
2019-04-06T06:52:55.698Z,90.03
2019-04-06T06:55:59.000Z,88.11
2019-04-06T06:59:02.312Z,87.06
2019-04-06T07:02:05.848Z,86.73
2019-04-06T07:05:09.168Z,88.22
2019-04-06T07:08:12.552Z,87.38
2019-04-06T07:11:15.936Z,87.41
2019-04-06T07:14:19.410Z,87.80
2019-04-06T07:17:22.763Z,85.62
2019-04-06T07:20:26.060Z,85.27
2019-04-06T07:23:29.402Z,83.53
2019-04-06T07:26:32.708Z,83.76
2019-04-06T07:29:36.051Z,86.02
2019-04-06T07:32:39.401Z,86.51
2019-04-06T07:35:42.724Z,84.63
2019-04-06T07:38:47.846Z,83.56
2019-04-06T07:41:51.187Z,84.05
2019-04-06T07:44:54.540Z,84.04
2019-04-06T07:47:57.864Z,84.51
2019-04-06T07:51:01.311Z,85.85
2019-04-06T07:54:04.725Z,83.16
2019-04-06T07:57:08.057Z,80.91
2019-04-06T08:00:11.387Z,82.34
2019-04-06T08:03:14.812Z,84.05
2019-04-06T08:06:18.349Z,84.28
2019-04-06T08:09:21.757Z,83.45
2019-04-06T08:12:25.035Z,81.79
2019-04-06T08:15:28.389Z,79.45
2019-04-06T08:18:31.783Z,77.03
2019-04-06T08:21:35.132Z,75.43
2019-04-06T08:24:38.477Z,76.79
2019-04-06T08:27:41.985Z,73.97
2019-04-06T08:30:48.816Z,72.97
2019-04-06T08:33:52.478Z,75.11
2019-04-06T08:36:56.356Z,75.95
2019-04-06T08:39:59.890Z,76.95
2019-04-06T08:43:03.156Z,73.51
2019-04-06T08:46:06.882Z,75.90
2019-04-06T08:49:10.188Z,78.23
2019-04-06T08:52:13.624Z,76.31
2019-04-06T08:55:16.993Z,70.79
2019-04-06T08:58:20.425Z,68.35
2019-04-06T09:01:23.753Z,69.19
2019-04-06T09:04:27.321Z,65.71
2019-04-06T09:07:30.653Z,60.49
2019-04-06T09:10:34.319Z,62.50
2019-04-06T09:13:40.019Z,64.13
2019-04-06T09:16:42.692Z,58.47
2019-04-06T09:19:46.014Z,59.24
2019-04-06T09:22:49.480Z,62.84
2019-04-06T09:25:52.899Z,60.46
2019-04-06T09:28:56.196Z,62.82
2019-04-06T09:31:59.992Z,60.50
2019-04-06T09:35:03.438Z,60.84
2019-04-06T09:38:08.396Z,59.03
2019-04-06T09:41:11.782Z,57.43
2019-04-06T09:44:22.906Z,55.52
2019-04-06T09:47:31.503Z,56.96
2019-04-06T09:50:52.869Z,57.55
2019-04-06T09:54:07.614Z,56.47
2019-04-06T09:57:12.739Z,48.61
2019-04-06T10:00:23.397Z,49.26
2019-04-06T10:03:31.178Z,45.34
2019-04-06T10:06:38.927Z,45.45
2019-04-06T10:09:59.953Z,41.41
2019-04-06T10:13:11.015Z,41.78
2019-04-06T10:16:16.151Z,45.39
2019-04-06T10:19:30.453Z,43.13
2019-04-06T10:22:35.423Z,46.70
2019-04-06T10:25:56.474Z,46.46
2019-04-06T10:29:16.268Z,42.35
2019-04-06T10:32:27.140Z,41.77
2019-04-06T10:35:32.235Z,41.79
2019-04-06T10:38:43.084Z,42.63
2019-04-06T10:42:06.323Z,44.27
2019-04-06T10:45:11.388Z,41.42
2019-04-06T10:48:32.888Z,43.22
2019-04-06T10:51:46.818Z,46.68
2019-04-06T10:55:08.221Z,44.85
2019-04-06T10:58:25.199Z,45.16
2019-04-06T11:01:42.197Z,45.60
2019-04-06T11:04:59.362Z,42.12
2019-04-06T11:08:06.360Z,42.34
2019-04-06T11:14:53.747Z,36.40
2019-04-06T11:18:01.592Z,37.10
2019-04-06T11:21:09.352Z,32.84
2019-04-06T11:24:20.323Z,33.39
2019-04-06T11:27:34.481Z,32.58
2019-04-06T11:30:48.260Z,29.87
2019-04-06T11:33:53.515Z,29.40
2019-04-06T11:37:18.514Z,27.97
2019-04-06T11:40:26.228Z,29.91
2019-04-06T11:43:49.499Z,28.33
2019-04-06T11:47:12.830Z,29.01
2019-04-06T11:50:33.031Z,25.98
2019-04-06T11:53:44.071Z,31.24
2019-04-06T11:57:06.827Z,33.06
2019-04-06T12:00:24.500Z,30.71
2019-04-06T12:03:33.358Z,34.05
2019-04-06T12:06:56.198Z,31.79
2019-04-06T12:10:06.913Z,32.51
2019-04-06T12:13:11.994Z,34.18
2019-04-06T12:16:20.006Z,33.56
2019-04-06T12:19:27.754Z,33.58
2019-04-06T12:22:50.080Z,35.24
2019-04-06T12:26:03.123Z,32.86
2019-04-06T12:29:08.181Z,32.45
2019-04-06T12:32:19.371Z,29.20
2019-04-06T12:35:41.176Z,33.09
2019-04-06T12:38:58.367Z,31.58
2019-04-06T12:42:09.259Z,30.38
2019-04-06T12:45:26.308Z,31.30
2019-04-06T12:48:36.821Z,33.06
2019-04-06T12:51:44.614Z,31.38
2019-04-06T12:54:52.105Z,30.92
2019-04-06T12:57:57.223Z,33.11
2019-04-06T13:01:17.022Z,34.34
2019-04-06T13:04:24.776Z,33.89
2019-04-06T13:07:29.869Z,34.14
2019-04-06T13:10:40.849Z,32.95
2019-04-06T13:13:48.553Z,31.07
2019-04-06T13:16:59.213Z,31.54
2019-04-06T13:20:19.653Z,33.57
2019-04-06T13:23:27.391Z,31.70
2019-04-06T13:26:38.560Z,30.30
2019-04-06T13:29:49.098Z,31.79
2019-04-06T13:32:54.141Z,31.50
2019-04-06T13:35:59.154Z,31.70
2019-04-06T13:39:07.215Z,36.20
2019-04-06T13:42:14.716Z,36.13
2019-04-06T13:45:35.030Z,37.74
2019-04-06T13:48:42.717Z,38.78
2019-04-06T13:51:50.582Z,39.62
2019-04-06T13:55:07.544Z,39.32
2019-04-06T13:58:15.750Z,38.66
2019-04-06T14:01:20.865Z,38.50
2019-04-06T14:04:25.882Z,37.69
2019-04-06T14:07:33.868Z,38.12
2019-04-06T14:10:53.637Z,37.64
2019-04-06T14:14:14.908Z,36.56
2019-04-06T14:17:29.095Z,37.12
2019-04-06T14:20:36.815Z,36.84
2019-04-06T14:23:44.282Z,36.64
2019-04-06T14:27:07.650Z,32.48
2019-04-06T14:30:12.653Z,33.23
2019-04-06T14:33:33.937Z,31.10
2019-04-06T14:36:44.435Z,31.00
2019-04-06T14:39:49.584Z,30.94
2019-04-06T14:43:06.851Z,31.81
2019-04-06T14:46:14.854Z,31.43
2019-04-06T14:49:29.617Z,31.94
2019-04-06T14:52:35.774Z,31.43
2019-04-06T14:55:41.210Z,32.08
2019-04-06T14:58:58.430Z,32.85
2019-04-06T15:02:19.804Z,32.56
2019-04-06T15:05:24.833Z,32.59
2019-04-06T15:08:38.837Z,32.02
2019-04-06T15:11:43.920Z,32.34
2019-04-06T15:14:58.364Z,31.91
2019-04-06T15:18:03.809Z,32.13
2019-04-06T15:21:25.562Z,32.70
2019-04-06T15:24:33.055Z,31.87
2019-04-06T15:27:38.133Z,31.07
2019-04-06T15:30:43.152Z,31.14
2019-04-06T15:33:54.151Z,31.31
2019-04-06T15:37:06.916Z,31.30
2019-04-06T15:40:11.496Z,31.59
2019-04-06T15:43:18.796Z,31.02
2019-04-06T15:46:23.310Z,31.04
2019-04-06T15:49:28.353Z,31.35
2019-04-06T15:52:45.739Z,30.56
2019-04-06T15:55:51.048Z,31.00
2019-04-06T15:59:02.071Z,30.95
2019-04-06T16:02:10.037Z,31.48
2019-04-06T16:05:21.430Z,31.46
2019-04-06T16:08:26.528Z,31.40
2019-04-06T16:11:42.141Z,31.41
2019-04-06T16:15:02.327Z,31.76
2019-04-06T16:18:07.374Z,31.20
2019-04-06T16:21:18.552Z,31.45
2019-04-06T16:24:35.540Z,31.29
2019-04-06T16:27:43.725Z,31.72
2019-04-06T16:31:04.146Z,31.73
2019-04-06T16:34:18.698Z,32.24
2019-04-06T16:37:26.863Z,32.21
2019-04-06T16:40:50.232Z,32.85
2019-04-06T16:43:55.264Z,33.28
2019-04-06T16:47:06.040Z,33.63
2019-04-06T16:50:16.724Z,34.19
2019-04-06T16:53:37.735Z,34.35
2019-04-06T16:56:43.013Z,34.81
2019-04-06T16:59:54.046Z,35.02
2019-04-06T17:02:59.088Z,35.24
2019-04-06T17:06:04.238Z,35.40
2019-04-06T17:09:14.664Z,35.80
2019-04-06T17:12:25.682Z,35.52
2019-04-06T17:15:40.089Z,35.95
2019-04-06T17:19:01.548Z,35.67
2019-04-06T17:22:06.842Z,35.37
2019-04-06T17:25:12.270Z,35.92
2019-04-06T17:28:33.966Z,35.82
2019-04-06T17:31:39.393Z,36.38
2019-04-06T17:34:53.430Z,36.74
2019-04-06T17:38:08.929Z,36.42
2019-04-06T17:41:29.249Z,36.54
2019-04-06T17:44:34.870Z,36.71
2019-04-06T17:47:42.973Z,36.78
2019-04-06T17:50:48.010Z,37.13
2019-04-06T17:54:09.608Z,37.33
2019-04-06T17:57:26.528Z,37.55
2019-04-06T18:00:37.120Z,38.08
2019-04-06T18:03:59.704Z,38.73
2019-04-06T18:07:06.435Z,38.37
2019-04-06T18:10:13.903Z,38.69
2019-04-06T18:13:21.722Z,39.30
2019-04-06T18:16:26.933Z,39.84
2019-04-06T18:19:30.347Z,39.58
2019-04-06T18:22:33.746Z,41.81
2019-04-06T18:25:37.753Z,40.48
2019-04-06T18:28:41.154Z,41.31
2019-04-06T18:31:49.139Z,40.90
2019-04-06T18:34:52.610Z,41.25
2019-04-06T18:37:57.638Z,41.27
2019-04-06T18:41:01.430Z,42.37
2019-04-06T18:44:04.921Z,42.06
2019-04-06T18:47:08.601Z,42.33
2019-04-06T18:50:12.878Z,42.59
2019-04-06T18:53:16.354Z,43.04
2019-04-06T18:56:20.041Z,43.51
2019-04-06T18:59:23.807Z,43.65
2019-04-06T19:02:27.202Z,43.64
2019-04-06T19:05:30.692Z,43.96
2019-04-06T19:08:34.306Z,44.45
2019-04-06T19:11:38.130Z,45.04
2019-04-06T19:14:41.609Z,45.26
2019-04-06T19:17:45.161Z,45.62
2019-04-06T19:20:48.565Z,45.95
2019-04-06T19:23:51.983Z,46.31
2019-04-06T19:26:55.410Z,46.32
2019-04-06T19:29:58.786Z,46.70
2019-04-06T19:33:02.210Z,47.08
2019-04-06T19:36:05.594Z,47.65
2019-04-06T19:39:12.160Z,48.51
2019-04-06T19:42:15.593Z,49.11
2019-04-06T19:45:19.572Z,49.67
2019-04-06T19:48:23.425Z,50.34
2019-04-06T19:51:27.187Z,51.00
2019-04-06T19:54:30.596Z,51.29
2019-04-06T19:57:35.104Z,51.91
2019-04-06T20:00:39.159Z,52.42
2019-04-06T20:03:42.481Z,52.58
2019-04-06T20:06:46.630Z,52.92
2019-04-06T20:09:50.101Z,53.18
2019-04-06T20:12:53.630Z,53.48
2019-04-06T20:15:57.275Z,53.86
2019-04-06T20:19:00.607Z,54.21
2019-04-06T20:22:04.307Z,54.23
2019-04-06T20:25:08.356Z,54.59
2019-04-06T20:28:12.071Z,54.82
2019-04-06T20:31:18.499Z,54.86
2019-04-06T20:34:21.963Z,55.11
2019-04-06T20:37:25.305Z,55.29
2019-04-06T20:40:28.779Z,55.90
2019-04-06T20:43:32.182Z,56.31
2019-04-06T20:46:35.487Z,56.73
2019-04-06T20:49:38.812Z,57.03
2019-04-06T20:52:42.512Z,57.51
2019-04-06T20:55:46.289Z,57.79
2019-04-06T20:58:49.619Z,58.27
2019-04-06T21:01:53.167Z,58.38
2019-04-06T21:04:56.525Z,58.82
2019-04-06T21:08:02.348Z,59.33
2019-04-06T21:11:05.611Z,59.64
2019-04-06T21:14:09.176Z,59.90
2019-04-06T21:17:12.556Z,59.98
2019-04-06T21:20:16.236Z,60.08
2019-04-06T21:23:19.830Z,60.53
2019-04-06T21:26:23.703Z,60.84
2019-04-06T21:29:27.044Z,60.95
2019-04-06T21:32:31.016Z,61.21
2019-04-06T21:35:43.851Z,61.22
2019-04-06T21:38:47.180Z,61.37
2019-04-06T21:41:50.798Z,61.54
2019-04-06T21:44:54.516Z,61.75
2019-04-06T21:48:00.486Z,62.04
2019-04-06T21:51:04.439Z,62.24
2019-04-06T21:54:08.046Z,62.47
2019-04-06T21:57:11.475Z,62.37
2019-04-06T22:00:16.680Z,62.55
2019-04-06T22:03:20.702Z,62.91
2019-04-06T22:06:25.699Z,62.94
2019-04-06T22:09:29.753Z,62.87
2019-04-06T22:12:35.816Z,62.96
2019-04-06T22:15:39.155Z,63.22
2019-04-06T22:18:43.033Z,63.31
2019-04-06T22:21:47.344Z,63.45
2019-04-06T22:24:51.804Z,63.64
2019-04-06T22:27:57.161Z,63.94
2019-04-06T22:31:06.576Z,64.07
2019-04-06T22:34:10.789Z,64.23
2019-04-06T22:37:14.280Z,64.37
2019-04-06T22:40:18.128Z,64.47
2019-04-06T22:43:21.832Z,64.28
2019-04-06T22:46:25.410Z,64.40
2019-04-06T22:49:29.359Z,64.61
2019-04-06T22:52:33.144Z,65.02
2019-04-06T22:55:36.881Z,65.19
2019-04-06T22:58:40.357Z,65.51
2019-04-06T23:01:43.774Z,65.67
2019-04-06T23:04:52.393Z,66.25
2019-04-06T23:07:56.134Z,67.16
2019-04-06T23:10:59.768Z,66.71
2019-04-06T23:14:03.158Z,66.83
2019-04-06T23:17:06.472Z,66.88
2019-04-06T23:20:09.767Z,67.09
2019-04-06T23:23:13.083Z,67.21
2019-04-06T23:26:16.951Z,67.11
2019-04-06T23:29:20.368Z,67.55
2019-04-06T23:32:23.908Z,67.67
2019-04-06T23:35:27.332Z,67.83
2019-04-06T23:38:30.648Z,67.71
2019-04-06T23:41:34.658Z,68.02
2019-04-06T23:44:38.035Z,68.22
2019-04-06T23:47:41.374Z,68.32
2019-04-06T23:50:45.138Z,68.29
2019-04-06T23:53:48.983Z,68.49
2019-04-06T23:56:52.983Z,68.71
2019-04-06T23:59:56.400Z,69.30
